Time;durP1;ratioP1;P1;durP2;ratioP2;P2;SDS_P1;SDS_P2;PMS_P1;PMS_P2;Temp;Humidity;BMP_temperature;BMP_pressure;BME280_temperature;BME280_humidity;BME280_pressure;Samples;Min_cycle;Max_cycle;Signal;HPM_P1;HPM_P2
2022/11/12 00:01:06;;;;;;;1.90;1.38;;;18.50;77.70;;;;;;6160704;23;20517;-82
2022/11/12 00:03:36;;;;;;;3.88;1.85;;;18.50;77.60;;;;;;6161131;23;20128;-83
2022/11/12 00:06:02;;;;;;;2.17;1.40;;;18.50;77.70;;;;;;6213887;23;20148;-83
2022/11/12 00:08:32;;;;;;;2.22;1.50;;;18.50;77.70;;;;;;6159973;23;20224;-83
2022/11/12 00:10:57;;;;;;;4.20;1.77;;;18.50;77.70;;;;;;6238914;23;20155;-82
2022/11/12 00:13:23;;;;;;;3.53;1.30;;;18.50;77.70;;;;;;6135776;23;20143;-82
2022/11/12 00:15:49;;;;;;;2.53;1.60;;;18.50;77.70;;;;;;6290194;22;20274;-83
2022/11/12 00:18:19;;;;;;;3.95;1.67;;;18.60;77.70;;;;;;6136045;23;20235;-82
2022/11/12 00:20:45;;;;;;;1.85;1.50;;;18.60;77.80;;;;;;6110608;23;20147;-82
2022/11/12 00:23:11;;;;;;;1.88;1.40;;;18.50;77.70;;;;;;6159854;23;20139;-83
2022/11/12 00:25:44;;;;;;;2.70;1.60;;;18.60;77.70;;;;;;6160308;23;20136;-83
2022/11/12 00:28:14;;;;;;;2.72;1.30;;;18.60;77.70;;;;;;6213971;23;20240;-83
2022/11/12 00:30:45;;;;;;;3.30;1.50;;;18.50;77.70;;;;;;6111317;23;20284;-82
2022/11/12 00:33:12;;;;;;;2.60;1.35;;;18.60;77.70;;;;;;6238293;23;20177;-82
2022/11/12 00:35:38;;;;;;;2.67;1.55;;;18.50;77.70;;;;;;6265382;22;20213;-82
2022/11/12 00:38:04;;;;;;;3.67;1.60;;;18.50;77.60;;;;;;6159851;23;20132;-82
2022/11/12 00:40:30;;;;;;;3.30;1.50;;;18.50;77.70;;;;;;6135901;23;20232;-82
2022/11/12 00:42:55;;;;;;;3.97;1.60;;;18.60;77.70;;;;;;6135151;23;20156;-83
2022/11/12 00:45:22;;;;;;;4.43;1.50;;;18.50;77.70;;;;;;6135490;23;20505;-83
2022/11/12 00:47:47;;;;;;;7.32;1.58;;;18.50;77.70;;;;;;6159487;23;20167;-83
2022/11/12 00:50:15;;;;;;;2.17;1.40;;;18.50;77.70;;;;;;6159109;23;20136;-83
2022/11/12 00:52:44;;;;;;;2.90;1.58;;;18.50;77.80;;;;;;6135351;23;20643;-82
2022/11/12 00:55:10;;;;;;;4.32;1.40;;;18.50;77.70;;;;;;6236932;23;20160;-83
2022/11/12 00:57:36;;;;;;;4.18;1.60;;;18.50;77.70;;;;;;6159047;23;20139;-82
2022/11/12 01:00:05;;;;;;;2.30;1.52;;;18.50;77.70;;;;;;6160421;23;20136;-83
2022/11/12 01:02:31;;;;;;;1.80;1.38;;;18.50;77.70;;;;;;6134844;23;20151;-82
2022/11/12 01:05:00;;;;;;;3.03;1.55;;;18.50;77.70;;;;;;6289113;22;20147;-83
2022/11/12 01:07:27;;;;;;;1.42;1.33;;;18.50;77.70;;;;;;6109714;23;20187;-82
2022/11/12 01:09:56;;;;;;;3.13;1.60;;;18.60;77.80;;;;;;6133688;23;20575;-83
2022/11/12 01:12:26;;;;;;;2.50;1.42;;;18.50;77.80;;;;;;6109053;23;20155;-83
2022/11/12 01:14:52;;;;;;;1.95;1.30;;;18.50;77.80;;;;;;6133287;22;20175;-82
2022/11/12 01:17:22;;;;;;;3.90;1.77;;;18.50;77.60;;;;;;6159057;23;20692;-83
2022/11/12 01:19:52;;;;;;;2.95;1.65;;;18.50;77.70;;;;;;6186523;23;20159;-83
2022/11/12 01:22:18;;;;;;;3.55;1.67;;;18.50;77.70;;;;;;6212187;23;20174;-82
2022/11/12 01:24:44;;;;;;;2.90;1.40;;;18.60;77.80;;;;;;6161601;23;20158;-82
2022/11/12 01:27:19;;;;;;;3.95;1.75;;;18.50;77.80;;;;;;6135971;23;20555;-82
2022/11/12 01:29:50;;;;;;;1.80;1.52;;;18.50;77.80;;;;;;6238747;23;20652;-83
2022/11/12 01:32:16;;;;;;;6.22;1.50;;;18.60;77.80;;;;;;6111809;23;20158;-82
2022/11/12 01:34:42;;;;;;;3.28;1.45;;;18.50;77.80;;;;;;6160629;23;20136;-82
2022/11/12 01:37:11;;;;;;;2.80;1.48;;;18.50;77.70;;;;;;6291335;22;20179;-82
2022/11/12 01:39:41;;;;;;;3.13;1.77;;;18.50;77.80;;;;;;6135782;22;20155;-84
2022/11/12 01:42:07;;;;;;;2.42;1.52;;;18.50;77.70;;;;;;6111454;23;20159;-82
2022/11/12 01:44:34;;;;;;;2.40;1.65;;;18.50;77.70;;;;;;6160942;23;20206;-82
2022/11/12 01:47:11;;;;;;;2.47;1.30;;;18.50;77.60;;;;;;6134186;23;20143;-82
2022/11/12 01:50:00;;;;;;;2.83;1.67;;;18.50;77.70;;;;;;6209640;23;20167;-82
2022/11/12 01:52:35;;;;;;;1.88;1.23;;;18.50;77.70;;;;;;6204771;23;20218;-83
2022/11/12 01:55:10;;;;;;;2.50;1.80;;;18.50;77.80;;;;;;6133533;23;20186;-82
2022/11/12 01:57:38;;;;;;;2.45;1.60;;;18.50;77.70;;;;;;6085462;23;20476;-82
2022/11/12 02:00:07;;;;;;;2.85;1.58;;;18.50;77.80;;;;;;6159018;23;20522;-83
2022/11/12 02:02:35;;;;;;;2.38;1.48;;;18.50;77.70;;;;;;6158171;23;20445;-82
2022/11/12 02:05:02;;;;;;;2.53;1.55;;;18.50;77.80;;;;;;6157866;23;20132;-83
2022/11/12 02:07:28;;;;;;;3.13;1.60;;;18.50;77.80;;;;;;6134080;23;20191;-82
2022/11/12 02:09:54;;;;;;;4.97;1.73;;;18.50;77.80;;;;;;6158741;23;20132;-83
2022/11/12 02:15:08;;;;;;;2.88;1.50;;;18.50;77.80;;;;;;6115847;23;20237;-82
2022/11/12 02:17:41;;;;;;;2.38;1.27;;;18.50;77.90;;;;;;6160025;23;20201;-83
2022/11/12 02:20:09;;;;;;;2.58;1.52;;;18.50;77.90;;;;;;6211098;23;20148;-82
2022/11/12 02:22:35;;;;;;;3.70;1.70;;;18.50;78.00;;;;;;6160380;23;20140;-82
2022/11/12 02:25:01;;;;;;;1.90;1.30;;;18.50;78.00;;;;;;6158618;23;20562;-82
2022/11/12 02:27:27;;;;;;;1.88;1.45;;;18.40;77.90;;;;;;6158909;23;20589;-83
2022/11/12 02:29:53;;;;;;;1.70;1.42;;;18.40;77.90;;;;;;6158535;23;20132;-82
2022/11/12 02:32:23;;;;;;;1.90;1.63;;;18.50;78.00;;;;;;6134822;23;20155;-82
2022/11/12 02:34:54;;;;;;;1.88;1.40;;;18.50;78.00;;;;;;6211475;23;20155;-82
2022/11/12 02:37:20;;;;;;;1.98;1.45;;;18.50;78.10;;;;;;6109217;23;20177;-82
2022/11/12 02:39:46;;;;;;;1.60;1.33;;;18.50;78.90;;;;;;6134382;23;20258;-83
2022/11/12 02:42:12;;;;;;;2.80;1.60;;;18.50;78.10;;;;;;6134601;23;20179;-82
2022/11/12 02:44:37;;;;;;;3.15;1.40;;;18.50;78.10;;;;;;6158799;23;20501;-82
2022/11/12 02:47:08;;;;;;;1.60;1.40;;;18.40;78.00;;;;;;6135198;23;20477;-83
2022/11/12 02:49:34;;;;;;;2.78;1.48;;;18.50;78.10;;;;;;6109622;23;20190;-83
2022/11/12 02:52:04;;;;;;;2.85;1.40;;;18.40;77.90;;;;;;6135351;23;20147;-82
2022/11/12 02:54:30;;;;;;;4.88;2.03;;;18.50;78.00;;;;;;6211657;23;20159;-82
2022/11/12 02:56:56;;;;;;;1.75;1.30;;;18.50;78.00;;;;;;6161068;23;20211;-82
2022/11/12 02:59:22;;;;;;;2.08;1.30;;;18.50;78.10;;;;;;6134283;23;20474;-83
2022/11/12 03:01:48;;;;;;;2.72;1.52;;;18.50;78.10;;;;;;6160108;23;20151;-82
2022/11/12 03:04:18;;;;;;;2.72;1.35;;;18.40;77.90;;;;;;6134810;23;20147;-82
2022/11/12 03:06:44;;;;;;;2.40;1.58;;;18.50;78.00;;;;;;6109398;23;20182;-82
2022/11/12 03:09:11;;;;;;;3.08;1.80;;;18.40;78.00;;;;;;6158888;23;20159;-82
2022/11/12 03:11:40;;;;;;;3.30;1.60;;;18.50;78.00;;;;;;6159313;23;20202;-82
2022/11/12 03:14:06;;;;;;;2.30;1.40;;;18.50;78.00;;;;;;6108997;23;20664;-82
2022/11/12 03:16:32;;;;;;;3.40;1.52;;;18.50;77.90;;;;;;6159848;23;20182;-83
2022/11/12 03:19:02;;;;;;;3.85;1.48;;;18.50;78.10;;;;;;6134222;23;20181;-82
2022/11/12 03:21:28;;;;;;;1.73;1.35;;;18.50;78.00;;;;;;6109276;23;20155;-81
2022/11/12 03:23:54;;;;;;;3.13;1.55;;;18.50;78.00;;;;;;6157842;23;20138;-82
2022/11/12 03:26:20;;;;;;;2.42;1.42;;;18.40;77.90;;;;;;6133495;23;20144;-83
2022/11/12 03:28:46;;;;;;;1.70;1.30;;;18.50;78.00;;;;;;6158959;23;20163;-84
2022/11/12 03:31:12;;;;;;;1.92;1.60;;;18.40;78.00;;;;;;6158803;23;20135;-84
2022/11/12 03:33:38;;;;;;;2.22;1.10;;;18.50;78.00;;;;;;6158697;23;20198;-82
2022/11/12 03:36:04;;;;;;;1.35;1.20;;;18.50;78.00;;;;;;6159308;23;20136;-83
2022/11/12 03:38:30;;;;;;;2.85;1.55;;;18.40;77.90;;;;;;6159571;23;20173;-83
2022/11/12 03:40:56;;;;;;;2.72;1.52;;;18.40;77.90;;;;;;6134230;23;20599;-82
2022/11/12 03:43:28;;;;;;;2.92;1.52;;;18.50;77.90;;;;;;6159010;23;20210;-83
2022/11/12 03:46:00;;;;;;;1.50;1.05;;;18.50;78.00;;;;;;6132896;22;20187;-82
2022/11/12 03:48:30;;;;;;;3.17;1.30;;;18.40;77.90;;;;;;6235466;23;20210;-82
2022/11/12 03:50:57;;;;;;;2.28;1.10;;;18.40;78.00;;;;;;6108731;23;20160;-82
2022/11/12 03:53:27;;;;;;;2.13;1.40;;;18.40;77.90;;;;;;6157904;23;20132;-83
2022/11/12 03:55:56;;;;;;;3.25;1.50;;;18.50;78.00;;;;;;6158367;23;20158;-83
2022/11/12 03:58:22;;;;;;;2.28;1.50;;;18.50;78.00;;;;;;6236489;23;20155;-82
2022/11/12 04:00:48;;;;;;;2.63;1.70;;;18.40;78.00;;;;;;6133733;23;20167;-82
2022/11/12 04:03:19;;;;;;;3.15;1.55;;;18.40;78.10;;;;;;6159184;23;20136;-82
2022/11/12 04:08:37;;;;;;;2.08;1.40;;;18.50;78.10;;;;;;6203325;23;20645;-82
2022/11/12 04:11:14;;;;;;;3.35;1.45;;;18.40;78.00;;;;;;6185739;23;20156;-83
2022/11/12 04:13:46;;;;;;;2.17;1.30;;;18.50;78.10;;;;;;6109980;23;20151;-82
2022/11/12 04:21:50;;;;;;;2.42;1.60;;;18.40;77.90;;;;;;6204514;23;20170;-82
2022/11/12 04:26:54;;;;;;;2.92;1.48;;;18.40;78.00;;;;;;6159574;23;20628;-82
2022/11/12 04:32:08;;;;;;;4.20;1.65;;;18.40;78.00;;;;;;6160758;23;20140;-83
2022/11/12 04:34:34;;;;;;;1.65;1.30;;;18.40;77.90;;;;;;6134138;22;20159;-83
2022/11/12 04:37:02;;;;;;;1.65;1.33;;;18.40;78.00;;;;;;6160100;23;20147;-83
2022/11/12 04:39:29;;;;;;;2.20;1.45;;;18.40;78.00;;;;;;6160575;23;20204;-82
2022/11/12 04:47:15;;;;;;;2.13;1.58;;;18.40;77.90;;;;;;6159824;23;20555;-83
2022/11/12 04:49:41;;;;;;;2.28;1.40;;;18.40;77.90;;;;;;6134757;23;20215;-82
2022/11/12 04:52:07;;;;;;;2.80;1.70;;;18.40;77.90;;;;;;6159797;23;20195;-83
2022/11/12 04:54:33;;;;;;;2.33;1.40;;;18.40;77.90;;;;;;6159530;23;20463;-82
2022/11/12 04:57:00;;;;;;;1.45;1.17;;;18.40;78.00;;;;;;6160960;23;20127;-82
2022/11/12 04:59:26;;;;;;;1.55;1.20;;;18.40;78.10;;;;;;6159358;23;20159;-83
2022/11/12 05:01:52;;;;;;;2.20;1.55;;;18.40;78.00;;;;;;6160142;23;20139;-82
2022/11/12 05:04:18;;;;;;;2.60;1.65;;;18.40;78.00;;;;;;6134490;23;20159;-82
2022/11/12 05:06:50;;;;;;;1.80;1.52;;;18.40;78.10;;;;;;6158607;23;20136;-83
2022/11/12 05:09:18;;;;;;;2.35;1.42;;;18.40;78.10;;;;;;6135685;23;20187;-83
2022/11/12 05:11:44;;;;;;;3.15;1.40;;;18.40;78.10;;;;;;6160591;23;20560;-82
2022/11/12 05:14:10;;;;;;;2.03;1.17;;;18.40;78.00;;;;;;6289499;22;20144;-83
2022/11/12 05:16:36;;;;;;;2.08;1.50;;;18.40;78.00;;;;;;6159112;23;20195;-83
2022/11/12 05:19:02;;;;;;;2.63;1.95;;;18.40;78.00;;;;;;6134022;23;20159;-83
2022/11/12 05:24:21;;;;;;;1.95;1.48;;;18.50;78.00;;;;;;6204191;23;20155;-83
2022/11/12 05:26:47;;;;;;;2.38;1.33;;;18.50;78.00;;;;;;6212106;23;20246;-83
2022/11/12 05:29:13;;;;;;;3.17;1.83;;;18.40;77.90;;;;;;6159138;23;20618;-82
2022/11/12 05:31:39;;;;;;;2.92;1.58;;;18.40;77.80;;;;;;6159039;23;20144;-82
2022/11/12 05:34:09;;;;;;;2.97;1.50;;;18.50;78.00;;;;;;6134448;23;20474;-83
2022/11/12 05:36:35;;;;;;;2.63;1.50;;;18.40;78.00;;;;;;6133347;23;20603;-83
2022/11/12 05:39:01;;;;;;;4.32;1.77;;;18.40;77.90;;;;;;6135078;23;20231;-83
2022/11/12 05:41:31;;;;;;;3.35;1.50;;;18.40;78.00;;;;;;6134507;23;20162;-82
2022/11/12 05:43:57;;;;;;;1.98;1.38;;;18.40;77.90;;;;;;6110250;23;20151;-83
2022/11/12 05:46:23;;;;;;;1.95;1.55;;;18.40;77.90;;;;;;6158058;23;20124;-83
2022/11/12 05:48:49;;;;;;;2.70;1.40;;;18.40;77.90;;;;;;6158427;23;20170;-82
2022/11/12 05:51:15;;;;;;;2.92;1.50;;;18.40;77.90;;;;;;6159924;23;20135;-83
2022/11/12 05:53:41;;;;;;;1.52;1.40;;;18.50;78.00;;;;;;6135050;23;20444;-82
2022/11/12 05:56:07;;;;;;;2.03;1.48;;;18.40;77.90;;;;;;6159188;23;20136;-83
2022/11/12 05:58:38;;;;;;;3.75;1.50;;;18.50;78.00;;;;;;6158882;23;20170;-82
2022/11/12 06:01:04;;;;;;;2.33;1.38;;;18.40;78.00;;;;;;6085658;23;20205;-82
2022/11/12 06:03:34;;;;;;;3.90;1.67;;;18.40;78.00;;;;;;6133936;23;20151;-82
2022/11/12 06:06:00;;;;;;;2.08;1.40;;;18.40;78.00;;;;;;6133639;23;20158;-82
2022/11/12 06:08:26;;;;;;;3.13;1.42;;;18.40;78.00;;;;;;6159448;23;20175;-84
2022/11/12 06:10:52;;;;;;;2.65;1.20;;;18.40;77.90;;;;;;6159115;23;20132;-82
2022/11/12 06:13:19;;;;;;;2.65;1.70;;;18.40;78.00;;;;;;6159612;23;20187;-82
2022/11/12 06:15:44;;;;;;;2.85;1.88;;;18.50;78.10;;;;;;6160253;23;20179;-82
2022/11/12 06:18:10;;;;;;;2.00;1.40;;;18.40;77.90;;;;;;6135209;23;20236;-83
2022/11/12 06:20:40;;;;;;;2.13;1.20;;;18.40;77.90;;;;;;6158775;23;20142;-83
2022/11/12 06:23:06;;;;;;;2.55;1.67;;;18.40;77.90;;;;;;6085008;23;20590;-83
2022/11/12 06:25:36;;;;;;;2.95;1.58;;;18.40;77.90;;;;;;6136362;23;20220;-83
2022/11/12 06:28:02;;;;;;;2.28;1.38;;;18.40;77.90;;;;;;6214034;23;20183;-83
2022/11/12 06:30:28;;;;;;;2.03;1.33;;;18.40;78.00;;;;;;6135604;23;20155;-83
2022/11/12 06:33:00;;;;;;;2.63;1.60;;;18.40;77.80;;;;;;6159382;23;20171;-83
2022/11/12 06:35:26;;;;;;;1.80;1.33;;;18.40;77.90;;;;;;6108624;23;20164;-82
2022/11/12 06:37:52;;;;;;;2.08;1.45;;;18.50;77.70;;;;;;6158622;23;20174;-82
2022/11/12 06:40:18;;;;;;;3.88;1.65;;;18.50;78.00;;;;;;6133992;23;20171;-83
2022/11/12 06:42:54;;;;;;;2.38;1.40;;;18.40;77.90;;;;;;6134243;23;20151;-82
2022/11/12 06:45:20;;;;;;;1.60;1.20;;;18.40;77.60;;;;;;6134416;23;20196;-83
2022/11/12 06:47:46;;;;;;;2.58;1.40;;;18.50;77.80;;;;;;6132481;23;20175;-82
2022/11/12 06:50:16;;;;;;;2.58;1.48;;;18.50;77.70;;;;;;6156934;23;20136;-83
2022/11/12 06:52:42;;;;;;;2.75;1.40;;;18.50;77.90;;;;;;6107600;23;20525;-82
2022/11/12 06:55:13;;;;;;;3.38;1.40;;;18.40;78.00;;;;;;6157099;23;20139;-81
2022/11/12 06:57:44;;;;;;;2.33;1.58;;;18.50;78.00;;;;;;6131966;23;20248;-82
2022/11/12 07:00:10;;;;;;;2.95;1.42;;;18.50;78.00;;;;;;6185159;23;20186;-85
2022/11/12 07:02:36;;;;;;;2.35;1.60;;;18.50;78.00;;;;;;6156949;23;20142;-83
2022/11/12 07:05:02;;;;;;;2.47;1.42;;;18.50;77.90;;;;;;6156761;23;20457;-83
2022/11/12 07:07:28;;;;;;;2.70;1.55;;;18.50;77.80;;;;;;6133254;23;20555;-83
2022/11/12 07:09:54;;;;;;;2.33;1.33;;;18.50;77.70;;;;;;6157745;23;20136;-83
2022/11/12 07:12:19;;;;;;;2.90;1.60;;;18.50;77.60;;;;;;6156600;23;20202;-84
2022/11/12 07:14:46;;;;;;;3.15;1.60;;;18.50;77.60;;;;;;6156337;23;20144;-83
2022/11/12 07:17:14;;;;;;;2.47;1.40;;;18.50;77.40;;;;;;6155654;23;20195;-83
2022/11/12 07:19:40;;;;;;;2.45;1.83;;;18.50;77.40;;;;;;6155042;23;20479;-82
2022/11/12 07:22:05;;;;;;;2.70;1.60;;;18.50;77.60;;;;;;6130481;23;20161;-83
2022/11/12 07:24:32;;;;;;;2.95;1.70;;;18.50;77.60;;;;;;6154991;23;20138;-83
2022/11/12 07:27:02;;;;;;;1.70;1.30;;;18.50;77.60;;;;;;6106508;23;20182;-81
2022/11/12 07:29:32;;;;;;;2.97;1.58;;;18.50;77.40;;;;;;6156995;23;20602;-84
2022/11/12 07:31:59;;;;;;;1.77;1.35;;;18.60;77.60;;;;;;6081813;23;20208;-83
2022/11/12 07:34:25;;;;;;;2.30;1.40;;;18.50;77.40;;;;;;6081867;23;20156;-83
2022/11/12 07:36:51;;;;;;;1.77;1.35;;;18.50;77.30;;;;;;6155270;23;20440;-85
2022/11/12 07:39:17;;;;;;;1.95;1.75;;;18.60;77.30;;;;;;6156405;23;20147;-84
2022/11/12 07:41:43;;;;;;;2.08;1.30;;;18.60;77.20;;;;;;6131893;23;20143;-84
2022/11/12 07:44:16;;;;;;;4.00;1.40;;;18.60;77.10;;;;;;6155583;23;20191;-82
2022/11/12 07:46:47;;;;;;;2.67;1.30;;;18.60;77.00;;;;;;6109114;23;20148;-83
2022/11/12 07:49:16;;;;;;;2.40;1.40;;;18.60;76.90;;;;;;6214493;23;20183;-83
2022/11/12 07:51:42;;;;;;;3.17;1.83;;;18.60;76.90;;;;;;6185388;23;20183;-83
2022/11/12 07:54:09;;;;;;;1.83;1.40;;;18.60;76.90;;;;;;6137647;23;20150;-82
2022/11/12 07:56:40;;;;;;;3.80;1.52;;;18.60;77.10;;;;;;6158839;23;20191;-82
2022/11/12 07:59:13;;;;;;;3.10;1.38;;;18.60;76.90;;;;;;6160133;23;20527;-82
2022/11/12 08:01:40;;;;;;;2.28;1.27;;;18.60;76.90;;;;;;6131763;23;20452;-84
2022/11/12 08:04:08;;;;;;;2.33;1.30;;;18.60;76.50;;;;;;6129787;23;20234;-84
2022/11/12 08:06:36;;;;;;;3.83;1.75;;;18.70;76.30;;;;;;6132898;23;20230;-85
2022/11/12 08:09:03;;;;;;;2.72;1.52;;;18.70;76.50;;;;;;6157964;23;20186;-81
2022/11/12 08:11:29;;;;;;;2.60;1.42;;;18.70;76.40;;;;;;6156465;23;20136;-83
2022/11/12 08:13:55;;;;;;;5.20;1.40;;;18.80;76.60;;;;;;6158083;23;20139;-83
2022/11/12 08:16:21;;;;;;;1.67;1.20;;;18.80;76.50;;;;;;6136256;23;20195;-81
2022/11/12 08:18:47;;;;;;;3.85;1.30;;;18.80;76.60;;;;;;6136933;23;20219;-82
2022/11/12 08:21:15;;;;;;;1.55;1.38;;;18.80;76.60;;;;;;6161726;23;20132;-83
2022/11/12 08:23:48;;;;;;;4.30;1.40;;;18.90;76.60;;;;;;6138874;23;20196;-81
2022/11/12 08:26:19;;;;;;;1.25;1.05;;;18.80;76.40;;;;;;6296141;22;20135;-82
2022/11/12 08:28:49;;;;;;;3.33;1.35;;;18.80;76.10;;;;;;6192395;23;20321;-84
2022/11/12 08:31:21;;;;;;;2.40;1.52;;;18.80;76.00;;;;;;6212102;23;20431;-84
2022/11/12 08:33:53;;;;;;;3.40;1.48;;;18.80;75.80;;;;;;6214307;23;20162;-82
2022/11/12 08:36:20;;;;;;;4.07;1.83;;;18.80;76.10;;;;;;6136848;23;20158;-84
2022/11/12 08:38:46;;;;;;;5.20;1.65;;;18.90;76.20;;;;;;6158733;23;20215;-84
2022/11/12 08:41:23;;;;;;;2.90;1.38;;;18.90;76.20;;;;;;6160936;23;20450;-83
2022/11/12 08:43:49;;;;;;;5.70;1.80;;;19.00;76.10;;;;;;6134239;23;20147;-85
2022/11/12 08:46:19;;;;;;;2.50;1.20;;;19.00;76.40;;;;;;6134607;23;20147;-85
2022/11/12 08:48:45;;;;;;;3.50;1.63;;;19.10;76.10;;;;;;6086916;23;20183;-83
2022/11/12 08:51:11;;;;;;;5.03;1.60;;;19.00;76.30;;;;;;6131937;23;20160;-84
2022/11/12 08:53:37;;;;;;;3.05;1.40;;;19.00;76.80;;;;;;6158347;23;20209;-83
2022/11/12 08:56:03;;;;;;;5.28;1.50;;;19.10;76.10;;;;;;6157044;23;20531;-83
2022/11/12 08:58:33;;;;;;;4.50;1.85;;;19.10;75.70;;;;;;6152406;23;20148;-87
2022/11/12 09:01:07;;;;;;;3.83;1.48;;;19.10;75.80;;;;;;6209275;23;20152;-85
2022/11/12 09:03:43;;;;;;;5.57;1.52;;;19.20;76.10;;;;;;6083909;23;20167;-83
2022/11/12 09:06:15;;;;;;;7.95;1.70;;;19.10;76.10;;;;;;6132364;23;20143;-84
2022/11/12 09:08:41;;;;;;;4.38;1.60;;;19.20;76.00;;;;;;6084621;23;20183;-83
2022/11/12 09:11:07;;;;;;;4.60;1.50;;;19.20;76.00;;;;;;6212473;23;20564;-83
2022/11/12 09:13:35;;;;;;;4.80;1.52;;;19.20;75.90;;;;;;6162614;23;20128;-82
2022/11/12 09:16:02;;;;;;;8.30;1.73;;;19.20;76.00;;;;;;6126270;22;20632;-82
2022/11/12 09:18:30;;;;;;;6.45;1.63;;;19.30;76.10;;;;;;6105847;23;20141;-83
2022/11/12 09:21:04;;;;;;;6.30;1.40;;;19.30;76.30;;;;;;6156800;23;20671;-83
2022/11/12 09:23:32;;;;;;;9.98;1.50;;;19.30;76.10;;;;;;6129940;22;20152;-83
2022/11/12 09:25:59;;;;;;;5.00;1.75;;;19.40;76.00;;;;;;6082143;23;20156;-82
2022/11/12 09:28:29;;;;;;;11.70;2.30;;;19.30;75.60;;;;;;6231148;23;20183;-83
2022/11/12 09:31:05;;;;;;;5.00;1.83;;;19.30;75.70;;;;;;6126002;23;20262;-80
2022/11/12 09:33:32;;;;;;;8.38;1.60;;;19.40;75.80;;;;;;6106974;23;20186;-82
2022/11/12 09:36:02;;;;;;;5.00;1.73;;;19.40;75.80;;;;;;6133673;23;20129;-83
2022/11/12 09:38:33;;;;;;;4.18;1.63;;;19.30;75.80;;;;;;6108503;23;20167;-81
2022/11/12 09:41:12;;;;;;;5.65;1.50;;;19.30;76.00;;;;;;6154283;23;20155;-81
2022/11/12 09:44:01;;;;;;;5.90;1.85;;;19.40;75.80;;;;;;6134167;23;20140;-81
2022/11/12 09:46:47;;;;;;;7.88;1.77;;;19.40;75.80;;;;;;6133192;23;20152;-83
2022/11/12 09:49:18;;;;;;;5.82;1.20;;;19.40;75.60;;;;;;6131273;23;20190;-83
2022/11/12 09:51:48;;;;;;;7.95;1.65;;;19.40;75.50;;;;;;6081805;23;20159;-83
2022/11/12 09:54:26;;;;;;;5.85;1.50;;;19.40;75.90;;;;;;6105065;23;20132;-84
2022/11/12 09:56:55;;;;;;;7.55;1.67;;;19.50;75.60;;;;;;6102431;23;20159;-83
2022/11/12 09:59:34;;;;;;;8.20;1.70;;;19.40;76.00;;;;;;6076312;23;20152;-86
2022/11/12 10:19:24;;;;;;;17.83;2.15;;;19.40;77.00;;;;;;6177236;23;20181;-84
2022/11/12 10:22:10;;;;;;;6.88;1.70;;;19.40;77.20;;;;;;6083616;23;20207;-84
2022/11/12 10:24:36;;;;;;;10.45;2.00;;;19.30;77.50;;;;;;6107466;23;20177;-84
2022/11/12 10:27:15;;;;;;;5.90;2.00;;;19.30;77.60;;;;;;6082304;23;20154;-84
2022/11/12 10:29:58;;;;;;;10.23;1.90;;;19.30;77.20;;;;;;6109850;23;20191;-84
2022/11/12 10:32:30;;;;;;;10.13;2.28;;;19.30;76.80;;;;;;6134650;23;20562;-85
2022/11/12 10:35:00;;;;;;;6.90;2.08;;;19.40;78.00;;;;;;6083950;23;20148;-82
2022/11/12 10:37:49;;;;;;;4.07;1.60;;;19.30;78.10;;;;;;6055097;23;20184;-84
2022/11/12 10:40:37;;;;;;;7.90;1.83;;;19.30;78.00;;;;;;6054217;23;20176;-83
2022/11/12 10:43:19;;;;;;;9.57;1.63;;;19.30;78.20;;;;;;6105200;23;20137;-83
2022/11/12 10:45:49;;;;;;;5.43;1.65;;;19.30;78.10;;;;;;6080054;23;20136;-84
2022/11/12 10:48:27;;;;;;;5.40;1.55;;;19.30;78.00;;;;;;6052301;23;20181;-83
2022/11/12 10:51:02;;;;;;;3.70;1.50;;;19.30;78.10;;;;;;6054808;23;20125;-81
2022/11/12 10:53:38;;;;;;;7.43;1.80;;;19.30;77.50;;;;;;6075537;23;20614;-84
2022/11/12 10:56:21;;;;;;;7.80;1.73;;;19.30;78.10;;;;;;6025939;23;20148;-84
2022/11/12 10:59:16;;;;;;;4.95;1.88;;;19.30;77.80;;;;;;6049358;23;20165;-81
2022/11/12 11:01:44;;;;;;;6.15;1.70;;;19.30;78.30;;;;;;6072345;23;20248;-82
2022/11/12 11:04:28;;;;;;;6.72;1.80;;;19.20;77.60;;;;;;6027664;23;20153;-83
2022/11/12 11:07:15;;;;;;;16.73;2.13;;;19.30;78.10;;;;;;6048377;23;20557;-83
2022/11/12 11:09:59;;;;;;;7.32;1.65;;;19.30;78.00;;;;;;6048288;23;20209;-83
2022/11/12 11:12:32;;;;;;;8.63;1.95;;;19.30;78.40;;;;;;6026787;23;20250;-81
2022/11/12 11:15:17;;;;;;;8.52;1.95;;;19.30;78.10;;;;;;6146556;23;20154;-82
2022/11/12 11:17:43;;;;;;;7.35;2.13;;;19.30;77.50;;;;;;6045163;23;20150;-82
2022/11/12 11:20:28;;;;;;;8.43;2.00;;;19.30;77.60;;;;;;6049166;23;20212;-84
2022/11/12 11:23:26;;;;;;;5.65;1.63;;;19.30;77.70;;;;;;6046510;23;20514;-82
2022/11/12 11:25:54;;;;;;;8.20;1.95;;;19.30;77.10;;;;;;6047307;23;20166;-80
2022/11/12 11:28:40;;;;;;;11.50;2.20;;;19.40;77.60;;;;;;6048409;23;20163;-82
2022/11/12 11:31:21;;;;;;;5.68;1.98;;;19.30;78.10;;;;;;6080953;23;20249;-82
2022/11/12 11:33:53;;;;;;;6.75;1.70;;;19.30;78.40;;;;;;6076746;23;20163;-82
2022/11/12 11:36:35;;;;;;;7.40;1.70;;;19.40;79.20;;;;;;6049504;23;20168;-84
2022/11/12 11:39:18;;;;;;;5.40;1.80;;;19.40;77.80;;;;;;6097573;23;20160;-84
2022/11/12 11:42:06;;;;;;;7.47;2.03;;;19.30;77.40;;;;;;6147693;23;20183;-82
2022/11/12 11:44:41;;;;;;;6.03;1.85;;;19.30;78.40;;;;;;6054845;23;20157;-84
2022/11/12 11:47:23;;;;;;;5.03;1.75;;;19.30;78.00;;;;;;6106581;23;20152;-82
2022/11/12 11:50:12;;;;;;;5.68;1.70;;;19.30;78.10;;;;;;6049270;23;20196;-83
2022/11/12 11:52:49;;;;;;;6.85;1.92;;;19.30;78.30;;;;;;6100970;23;20160;-82
2022/11/12 11:55:49;;;;;;;4.57;1.40;;;19.30;78.80;;;;;;6075896;23;20153;-85
2022/11/12 11:58:31;;;;;;;8.65;2.15;;;19.40;79.50;;;;;;6080139;23;20151;-82
2022/11/12 12:01:26;;;;;;;6.55;1.60;;;19.30;78.30;;;;;;6051302;23;20516;-85
2022/11/12 12:04:24;;;;;;;11.00;1.60;;;19.40;78.80;;;;;;6104391;23;20560;-84
2022/11/12 12:07:26;;;;;;;10.85;2.05;;;19.40;78.90;;;;;;6078407;23;20648;-84
2022/11/12 12:10:00;;;;;;;7.45;1.70;;;19.40;78.40;;;;;;6073837;23;20164;-83
2022/11/12 12:12:51;;;;;;;10.73;2.00;;;19.40;78.30;;;;;;6047827;23;20145;-82
2022/11/12 12:15:40;;;;;;;10.68;2.00;;;19.40;78.50;;;;;;6072244;23;20563;-83
2022/11/12 12:18:32;;;;;;;5.93;1.70;;;19.40;78.70;;;;;;6071583;23;20146;-84
2022/11/12 12:21:19;;;;;;;9.02;1.98;;;19.40;78.90;;;;;;6072088;23;20197;-84
2022/11/12 12:24:00;;;;;;;7.47;2.00;;;19.40;78.60;;;;;;6025441;23;20149;-84
2022/11/12 12:26:39;;;;;;;11.27;2.33;;;19.40;78.80;;;;;;6060288;23;20155;-82
2022/11/12 12:29:17;;;;;;;6.63;2.00;;;19.30;78.50;;;;;;6084031;23;20192;-82
2022/11/12 12:31:54;;;;;;;6.00;2.00;;;19.30;78.70;;;;;;6107448;23;20152;-83
2022/11/12 12:34:23;;;;;;;9.40;1.65;;;19.40;79.10;;;;;;6082738;23;20177;-82
2022/11/12 12:36:51;;;;;;;9.20;1.50;;;19.30;78.70;;;;;;6131449;23;20504;-84
2022/11/12 12:39:18;;;;;;;4.68;1.38;;;19.30;78.60;;;;;;6130253;23;20152;-82
2022/11/12 12:41:53;;;;;;;6.85;2.33;;;19.30;79.40;;;;;;6105978;23;20179;-82
2022/11/12 12:44:58;;;;;;;4.97;1.60;;;19.30;78.90;;;;;;6106753;23;20136;-83
2022/11/12 12:47:13;;;;;;;7.38;1.73;;;19.30;78.60;;;;;;6131708;23;20159;-82
2022/11/12 12:49:40;;;;;;;6.32;1.52;;;19.30;78.50;;;;;;6104630;23;20168;-84
2022/11/12 12:52:14;;;;;;;3.90;1.50;;;19.30;78.50;;;;;;6107067;23;20136;-83
2022/11/12 12:54:57;;;;;;;9.40;2.08;;;19.30;78.40;;;;;;6081335;23;20148;-84
2022/11/12 12:57:27;;;;;;;7.78;1.90;;;19.30;78.50;;;;;;6132214;23;20143;-83
2022/11/12 13:00:31;;;;;;;7.05;1.80;;;19.30;78.70;;;;;;6082518;23;20148;-82
2022/11/12 13:03:03;;;;;;;3.95;1.60;;;19.30;79.00;;;;;;6129723;23;20149;-82
2022/11/12 13:05:39;;;;;;;8.30;1.90;;;19.40;79.00;;;;;;6107809;23;20436;-82
2022/11/12 13:08:19;;;;;;;6.97;1.75;;;19.30;78.70;;;;;;6231117;23;20187;-83
2022/11/12 13:10:47;;;;;;;7.75;1.50;;;19.30;78.80;;;;;;6108009;23;20159;-83
2022/11/12 13:13:28;;;;;;;6.03;2.00;;;19.30;79.00;;;;;;6105950;23;20144;-83
2022/11/12 13:15:56;;;;;;;5.78;1.70;;;19.30;78.80;;;;;;6103132;23;20561;-85
2022/11/12 13:18:57;;;;;;;3.80;1.63;;;19.30;78.90;;;;;;6107927;23;20568;-82
2022/11/12 13:21:26;;;;;;;5.32;1.98;;;19.30;78.80;;;;;;6161729;23;20184;-84
2022/11/12 13:26:55;;;;;;;5.13;2.05;;;19.30;78.70;;;;;;6164762;23;20135;-84
2022/11/12 13:29:41;;;;;;;5.47;1.92;;;19.30;78.70;;;;;;6164106;23;20244;-83
2022/11/12 13:32:32;;;;;;;4.95;1.50;;;19.30;78.50;;;;;;6081483;23;20172;-82
2022/11/12 13:35:14;;;;;;;6.20;1.83;;;19.30;77.70;;;;;;6082354;23;20156;-83
2022/11/12 13:37:43;;;;;;;4.03;1.60;;;19.40;78.70;;;;;;6081798;23;20164;-82
2022/11/12 13:40:13;;;;;;;8.55;1.70;;;19.30;78.70;;;;;;6082758;23;20152;-82
2022/11/12 13:42:47;;;;;;;3.40;1.67;;;19.30;78.60;;;;;;6128665;23;20302;-82
2022/11/12 13:45:18;;;;;;;5.50;1.90;;;19.30;78.50;;;;;;6035043;23;20153;-83
2022/11/12 13:47:44;;;;;;;4.93;1.77;;;19.30;78.50;;;;;;6183148;23;20163;-83
2022/11/12 13:50:15;;;;;;;4.63;2.17;;;19.30;78.60;;;;;;6081589;23;20156;-82